logo
Search for airport 
image banner adimage banner adimage banner ad
image banner ad

VEMR - Dimapur Airport, Dimapur

Located in Dimapur, India

ICAO - VEMR, IATA - DMU

Data provided by Airmate  

General information

Coordinates: N25°52'60" E93°46'17"
Elevation is 493 feet MSL.
 
View others Airports in Nagaland

Operational data

Special qualification required
Current time UTC:
Current local time:
Weather
TAF: TAF VEMR 231700Z 2318/2403 00000KT 2000 BR SCT018 FEW025CB BKN100
View NOTAMs / SUP AIP / TFR affecting this airport [VIEW]
Communications frequencies: [VIEW]

Runways:

RWY identifierQFULength (ft)Width (ft)SurfaceLDA (ft)
12118°7513148ASP
30298°7513148ASP

Airport contact information

Address: Dimapur India

Satellite view of VEMR